Hovedside
METAR-TAF:

METAR-TAF

Lufthavner :

Princeton, Britisk Columbia, Canada

breddegrad: 49-28N, lengdegrad: 120-31W, høyde over havet: 700 m

Gjeldene værobservasjon

Denne rapporten ble laget for 11 timer og 4 minutter siden, klokken 01:00 UTC
Vind 5 kt fra Nordvest, skiftende mellom Vest-nordvest og Nord
Temperatur 11°C
Luftfuktighet 50%
Trykk 1024 hPa
Sikt: 40.2 km
Få skyer i en høyde av 27000 ft

METAR: CYDC 200100Z 31005KT 290V360 25SM FEW270 11/01 A3024 RMK CI1 CI TR CONTRAILS LAST STFD OBS/NEXT 20 1300UTC SLP256

Tid: 05:04 (12:04 UTC)


TAF: fraværende

Værobservasjoner og værvarsel for over 4000 flyplasser (METAR- og TAF-rapporter).

Tilgjengelige stasjoner er representert av de røde og gule prikkene på kartet.

Hold musepekeren over prikken for å se navnet på stasjonen.

Klikk så for å se værobservasjoner og -varsler.

For å forandre kartet kan du klikke på den grønne knappen med svart kryss for å zoome inn, på den grønne knappen med strek for å zoome ut, eller på de grønne pilene for å se tilstøtende kart.


METAR-TAF: